createdAt,value
2018-12-15T00:00:26.505Z,0.00
2018-12-15T00:01:27.550Z,0.00
2018-12-15T00:02:26.522Z,0.00
2018-12-15T00:03:26.534Z,0.00
2018-12-15T00:04:26.550Z,0.00
2018-12-15T00:05:26.574Z,0.00
2018-12-15T00:06:26.572Z,0.00
2018-12-15T00:07:26.595Z,0.00
2018-12-15T00:08:26.595Z,0.00
2018-12-15T00:09:26.605Z,0.00
2018-12-15T00:10:26.620Z,0.00
2018-12-15T00:11:26.631Z,0.00
2018-12-15T00:12:26.680Z,0.00
2018-12-15T00:13:26.648Z,0.00
2018-12-15T00:14:26.662Z,0.00
2018-12-15T00:15:26.670Z,0.00
2018-12-15T00:16:26.722Z,0.00
2018-12-15T00:17:26.695Z,0.00
2018-12-15T00:18:26.720Z,0.00
2018-12-15T00:19:26.716Z,0.00
2018-12-15T00:20:26.737Z,0.00
2018-12-15T00:21:26.739Z,0.00
2018-12-15T00:22:26.756Z,0.00
2018-12-15T00:23:26.814Z,0.00
2018-12-15T00:24:26.784Z,0.00
2018-12-15T00:25:26.823Z,0.00
2018-12-15T00:26:26.805Z,0.00
2018-12-15T00:27:26.817Z,0.00
2018-12-15T00:28:26.816Z,0.00
2018-12-15T00:29:26.853Z,0.00
2018-12-15T00:30:26.857Z,0.00
2018-12-15T00:31:26.859Z,0.00
2018-12-15T00:32:26.880Z,0.00
2018-12-15T00:33:26.937Z,0.00
2018-12-15T00:34:26.890Z,0.00
2018-12-15T00:35:26.899Z,0.00
2018-12-15T00:36:26.921Z,0.00
2018-12-15T00:37:26.929Z,0.00
2018-12-15T00:38:26.945Z,0.00
2018-12-15T00:39:26.946Z,0.00
2018-12-15T00:40:26.966Z,0.00
2018-12-15T00:41:26.976Z,0.00
2018-12-15T00:42:27.006Z,0.00
2018-12-15T00:43:27.006Z,0.00
2018-12-15T00:44:27.013Z,0.00
2018-12-15T00:45:27.027Z,0.00
2018-12-15T00:46:27.054Z,0.00
2018-12-15T00:47:27.042Z,0.00
2018-12-15T00:48:27.063Z,0.00
2018-12-15T00:49:27.080Z,0.00
2018-12-15T00:50:27.076Z,0.00
2018-12-15T00:51:27.113Z,0.00
2018-12-15T00:52:27.094Z,0.00
2018-12-15T00:53:27.112Z,0.00
2018-12-15T00:54:27.128Z,0.00
2018-12-15T00:55:27.155Z,0.00
2018-12-15T00:57:27.156Z,0.00
2018-12-15T00:58:27.164Z,0.00
2018-12-15T00:59:27.170Z,0.00
2018-12-15T01:00:27.190Z,0.00
2018-12-15T01:02:27.214Z,0.00
2018-12-15T01:03:27.228Z,0.00
2018-12-15T01:04:27.262Z,0.00
2018-12-15T01:05:27.246Z,0.00
2018-12-15T01:06:27.261Z,0.00
2018-12-15T01:07:27.314Z,0.00
2018-12-15T01:08:27.275Z,0.00
2018-12-15T01:09:27.302Z,0.00
2018-12-15T01:10:27.324Z,0.00
2018-12-15T01:11:27.311Z,0.00
2018-12-15T01:12:27.326Z,0.00
2018-12-15T01:13:27.340Z,0.00
2018-12-15T01:14:27.353Z,0.00
2018-12-15T01:15:27.365Z,0.00
2018-12-15T01:16:27.370Z,0.00
2018-12-15T01:17:27.391Z,0.00
2018-12-15T01:18:27.463Z,0.00
2018-12-15T01:19:27.403Z,0.00
2018-12-15T01:20:27.417Z,0.00
2018-12-15T01:21:27.439Z,0.00
2018-12-15T01:22:27.447Z,0.00
2018-12-15T01:23:27.472Z,0.00
2018-12-15T01:24:27.473Z,0.00
2018-12-15T01:25:27.476Z,0.00
2018-12-15T01:26:27.486Z,0.00
2018-12-15T01:27:27.509Z,0.00
2018-12-15T01:28:27.507Z,0.00
2018-12-15T01:29:27.518Z,0.00
2018-12-15T01:30:27.526Z,0.00
2018-12-15T01:31:27.540Z,0.00
2018-12-15T01:32:27.554Z,0.00
2018-12-15T01:33:27.571Z,0.00
2018-12-15T01:34:27.575Z,0.00
2018-12-15T01:35:27.708Z,0.00
2018-12-15T01:36:27.599Z,0.00
2018-12-15T01:37:27.617Z,0.00
2018-12-15T01:38:27.624Z,0.00
2018-12-15T01:39:27.639Z,0.00
2018-12-15T01:40:27.644Z,0.00
2018-12-15T01:41:27.663Z,0.00
2018-12-15T01:42:27.668Z,0.00
2018-12-15T01:43:27.677Z,0.00
2018-12-15T01:44:27.698Z,0.00
2018-12-15T01:45:27.720Z,0.00
2018-12-15T01:46:27.725Z,0.00
2018-12-15T01:47:27.720Z,0.00
2018-12-15T01:48:27.735Z,0.00
2018-12-15T01:49:27.748Z,0.00
2018-12-15T01:50:27.764Z,0.00
2018-12-15T01:51:27.778Z,0.00
2018-12-15T01:52:27.789Z,0.00
2018-12-15T01:53:27.801Z,0.00
2018-12-15T01:54:27.801Z,0.00
2018-12-15T01:55:27.821Z,0.00
2018-12-15T01:56:27.827Z,0.00
2018-12-15T01:57:27.848Z,0.00
2018-12-15T01:58:27.854Z,0.00
2018-12-15T01:59:27.868Z,0.00
2018-12-15T02:00:27.871Z,0.00
2018-12-15T02:01:27.947Z,0.00
2018-12-15T02:02:27.896Z,0.00
2018-12-15T02:03:27.906Z,0.00
2018-12-15T02:04:27.918Z,0.00
2018-12-15T02:05:27.928Z,0.00
2018-12-15T02:06:27.942Z,0.00
2018-12-15T02:07:27.955Z,0.00
2018-12-15T02:08:27.974Z,0.00
2018-12-15T02:09:28.045Z,0.00
2018-12-15T02:10:27.996Z,0.00
2018-12-15T02:11:27.996Z,0.00
2018-12-15T02:13:28.035Z,0.00
2018-12-15T02:14:28.028Z,0.00
2018-12-15T02:15:28.044Z,0.00
2018-12-15T02:16:28.060Z,0.00
2018-12-15T02:17:33.490Z,0.00
2018-12-15T02:18:28.077Z,0.00
2018-12-15T02:19:28.087Z,0.00
2018-12-15T02:20:28.134Z,0.00
2018-12-15T02:21:28.120Z,0.00
2018-12-15T02:22:28.139Z,0.00
2018-12-15T02:23:28.137Z,0.00
2018-12-15T02:24:28.147Z,0.00
2018-12-15T02:25:28.158Z,0.00
2018-12-15T02:26:28.222Z,0.00
2018-12-15T02:27:28.182Z,0.00
2018-12-15T02:28:28.191Z,0.00
2018-12-15T02:29:28.204Z,0.00
2018-12-15T02:30:28.213Z,0.00
2018-12-15T02:31:28.234Z,0.00
2018-12-15T02:32:28.246Z,0.00
2018-12-15T02:33:28.247Z,0.00
2018-12-15T02:34:28.262Z,0.00
2018-12-15T02:35:28.283Z,0.00
2018-12-15T02:36:28.281Z,0.00
2018-12-15T02:37:28.291Z,0.00
2018-12-15T02:38:28.304Z,0.00
2018-12-15T02:39:28.317Z,0.00
2018-12-15T02:40:28.326Z,0.00
2018-12-15T02:42:28.354Z,0.00
2018-12-15T02:43:28.446Z,0.00
2018-12-15T02:44:28.377Z,0.00
2018-12-15T02:45:28.391Z,0.00
2018-12-15T02:46:28.395Z,0.00
2018-12-15T02:47:28.414Z,0.00
2018-12-15T02:48:28.421Z,0.00
2018-12-15T02:49:28.434Z,0.00
2018-12-15T02:50:28.444Z,0.00
2018-12-15T02:52:28.470Z,0.00
2018-12-15T02:53:28.480Z,0.00
2018-12-15T02:54:28.486Z,0.00
2018-12-15T02:55:28.510Z,0.00
2018-12-15T02:56:28.514Z,0.00
2018-12-15T02:57:28.530Z,0.00
2018-12-15T02:58:28.569Z,0.00
2018-12-15T02:59:28.573Z,0.00
2018-12-15T03:00:28.597Z,0.00
2018-12-15T03:01:28.579Z,0.00
2018-12-15T03:02:28.584Z,0.00
2018-12-15T03:03:28.598Z,0.00
2018-12-15T03:04:28.615Z,0.00
2018-12-15T03:05:28.620Z,0.00
2018-12-15T03:06:28.635Z,0.00
2018-12-15T03:07:28.649Z,0.00
2018-12-15T03:08:28.662Z,0.00
2018-12-15T03:09:28.668Z,0.00
2018-12-15T03:10:28.674Z,0.00
2018-12-15T03:11:28.737Z,0.00
2018-12-15T03:12:28.709Z,0.00
2018-12-15T03:13:28.707Z,0.00
2018-12-15T03:14:28.718Z,0.00
2018-12-15T03:15:28.762Z,0.00
2018-12-15T03:16:28.756Z,0.00
2018-12-15T03:17:28.756Z,0.00
2018-12-15T03:18:28.766Z,0.00
2018-12-15T03:19:28.773Z,0.00
2018-12-15T03:20:28.789Z,0.00
2018-12-15T03:21:28.812Z,0.00
2018-12-15T03:22:28.805Z,0.00
2018-12-15T03:23:28.820Z,0.00
2018-12-15T03:24:28.835Z,0.00
2018-12-15T03:25:28.855Z,0.00
2018-12-15T03:26:28.852Z,0.00
2018-12-15T03:27:28.867Z,0.00
2018-12-15T03:28:28.877Z,0.00
2018-12-15T03:29:28.901Z,0.00
2018-12-15T03:30:29.069Z,0.00
2018-12-15T03:31:28.915Z,0.00
2018-12-15T03:32:28.930Z,0.00
2018-12-15T03:33:28.936Z,0.00
2018-12-15T03:34:28.943Z,0.00
2018-12-15T03:35:28.975Z,0.00
2018-12-15T03:36:28.967Z,0.00
2018-12-15T03:37:28.987Z,0.00
2018-12-15T03:38:28.995Z,0.00
2018-12-15T03:39:29.002Z,0.00
2018-12-15T03:40:29.014Z,0.00
2018-12-15T03:41:29.024Z,0.00
2018-12-15T03:42:29.030Z,0.00
2018-12-15T03:43:29.049Z,0.00
2018-12-15T03:44:29.067Z,0.00
2018-12-15T03:45:29.068Z,0.00
2018-12-15T03:46:29.076Z,0.00
2018-12-15T03:47:29.100Z,0.00
2018-12-15T03:48:29.102Z,0.00
2018-12-15T03:49:29.160Z,0.00
2018-12-15T03:50:29.133Z,0.00
2018-12-15T03:51:29.145Z,0.00
2018-12-15T03:52:29.148Z,0.00
2018-12-15T03:53:29.160Z,0.00
2018-12-15T03:54:29.170Z,0.00
2018-12-15T03:55:29.193Z,0.00
2018-12-15T03:56:29.207Z,0.00
2018-12-15T03:57:29.205Z,0.00
2018-12-15T03:59:29.228Z,0.00
2018-12-15T04:00:29.246Z,0.00
2018-12-15T04:01:29.247Z,0.00
2018-12-15T04:02:29.269Z,0.00
2018-12-15T04:03:29.278Z,0.00
2018-12-15T04:04:29.281Z,0.00
2018-12-15T04:05:29.296Z,0.00
2018-12-15T04:06:29.363Z,0.00
2018-12-15T04:07:29.315Z,0.00
2018-12-15T04:08:29.336Z,0.00
2018-12-15T04:09:29.343Z,0.00
2018-12-15T04:10:29.351Z,0.00
2018-12-15T04:11:29.362Z,0.00
2018-12-15T04:12:29.385Z,0.00
2018-12-15T04:13:29.386Z,0.00
2018-12-15T04:14:29.397Z,0.00
2018-12-15T04:15:29.409Z,0.00
2018-12-15T04:16:29.421Z,0.00
2018-12-15T04:17:29.502Z,0.00
2018-12-15T04:18:29.444Z,0.00
2018-12-15T04:19:29.452Z,0.00
2018-12-15T04:20:29.497Z,0.00
2018-12-15T04:21:29.506Z,0.00
2018-12-15T04:22:29.504Z,0.00
2018-12-15T04:23:29.503Z,0.00
2018-12-15T04:24:29.512Z,0.00
2018-12-15T04:25:29.530Z,0.00
2018-12-15T04:26:29.531Z,0.00
2018-12-15T04:27:29.558Z,0.00
2018-12-15T04:28:29.563Z,0.00
2018-12-15T04:29:29.568Z,0.00
2018-12-15T04:30:29.582Z,0.00
2018-12-15T04:31:29.598Z,0.00
2018-12-15T04:32:29.605Z,0.00
2018-12-15T04:33:29.623Z,0.00
2018-12-15T04:34:29.626Z,0.00
2018-12-15T04:35:29.640Z,0.00
2018-12-15T04:36:29.690Z,0.00
2018-12-15T04:37:29.671Z,0.00
2018-12-15T04:38:29.671Z,0.00
2018-12-15T04:39:29.681Z,0.00
2018-12-15T04:40:29.787Z,0.00
2018-12-15T04:41:29.708Z,0.00
2018-12-15T04:42:29.717Z,0.00
2018-12-15T04:43:29.731Z,0.00
2018-12-15T04:44:29.740Z,0.00
2018-12-15T04:45:29.782Z,0.00
2018-12-15T04:46:29.766Z,0.00
2018-12-15T04:47:29.777Z,0.00
2018-12-15T04:48:29.790Z,0.00
2018-12-15T04:49:29.798Z,0.00
2018-12-15T04:50:29.810Z,0.00
2018-12-15T04:51:29.823Z,0.00
2018-12-15T04:52:29.830Z,0.00
2018-12-15T04:53:29.893Z,0.00
2018-12-15T04:54:29.853Z,0.00
2018-12-15T04:55:29.878Z,0.00
2018-12-15T04:56:29.878Z,0.00
2018-12-15T04:57:29.934Z,0.00
2018-12-15T04:58:29.909Z,0.00
2018-12-15T04:59:29.910Z,0.00
2018-12-15T05:00:29.926Z,0.00
2018-12-15T05:01:29.928Z,0.00
2018-12-15T05:02:29.943Z,0.00
2018-12-15T05:03:29.963Z,0.00
2018-12-15T05:04:29.971Z,0.00
2018-12-15T05:05:29.983Z,0.00
2018-12-15T05:06:29.988Z,0.00
2018-12-15T05:07:29.998Z,0.00
2018-12-15T05:08:30.007Z,0.00
2018-12-15T05:09:30.023Z,0.00
2018-12-15T05:10:30.069Z,0.00
2018-12-15T05:11:30.042Z,0.00
2018-12-15T05:12:30.056Z,0.00
2018-12-15T05:13:30.068Z,0.00
2018-12-15T05:14:30.080Z,0.00
2018-12-15T05:15:30.112Z,0.00
2018-12-15T05:16:30.100Z,0.00
2018-12-15T05:17:30.107Z,0.00
2018-12-15T05:18:30.120Z,0.00
2018-12-15T05:19:30.126Z,0.00
2018-12-15T05:20:30.146Z,0.00
2018-12-15T05:21:30.158Z,0.00
2018-12-15T05:22:30.168Z,0.00
2018-12-15T05:23:30.178Z,0.00
2018-12-15T05:24:30.192Z,0.00
2018-12-15T05:25:30.195Z,0.00
2018-12-15T05:26:30.213Z,0.00
2018-12-15T05:27:30.236Z,0.00
2018-12-15T05:28:30.230Z,0.00
2018-12-15T05:29:30.269Z,0.00
2018-12-15T05:30:30.254Z,0.00
2018-12-15T05:31:30.324Z,0.00
2018-12-15T05:32:30.288Z,0.00
2018-12-15T05:33:30.283Z,0.00
2018-12-15T05:34:30.298Z,0.00
2018-12-15T05:35:30.314Z,0.00
2018-12-15T05:36:30.318Z,0.00
2018-12-15T05:37:30.338Z,0.00
2018-12-15T05:38:30.349Z,0.00
2018-12-15T05:39:30.352Z,0.00
2018-12-15T05:40:30.367Z,0.00
2018-12-15T05:41:30.370Z,0.00
2018-12-15T05:42:30.384Z,0.00
2018-12-15T05:43:30.400Z,0.00
2018-12-15T05:44:30.404Z,0.00
2018-12-15T05:45:30.455Z,0.00
2018-12-15T05:46:30.449Z,0.00
2018-12-15T05:47:30.455Z,0.00
2018-12-15T05:48:30.456Z,0.00
2018-12-15T05:49:30.472Z,0.00
2018-12-15T05:50:30.493Z,0.00
2018-12-15T05:51:30.488Z,0.00
2018-12-15T05:52:30.499Z,0.00
2018-12-15T05:53:30.510Z,0.00
2018-12-15T05:54:30.521Z,0.00
2018-12-15T05:55:30.534Z,0.00
2018-12-15T05:56:30.549Z,0.00
2018-12-15T05:57:30.560Z,0.00
2018-12-15T05:58:30.571Z,0.00
2018-12-15T05:59:30.582Z,0.00
2018-12-15T06:00:30.600Z,0.00
2018-12-15T06:01:30.600Z,0.00
2018-12-15T06:02:30.615Z,0.00
2018-12-15T06:03:30.624Z,0.00
2018-12-15T06:04:30.629Z,0.00
2018-12-15T06:05:30.656Z,0.00
2018-12-15T06:06:30.656Z,0.00
2018-12-15T06:07:30.669Z,0.00
2018-12-15T06:08:30.684Z,0.00
2018-12-15T06:09:30.691Z,0.00
2018-12-15T06:10:30.704Z,0.00
2018-12-15T06:11:30.714Z,0.00
2018-12-15T06:12:30.725Z,0.00
2018-12-15T06:13:30.731Z,0.00
2018-12-15T06:14:30.744Z,0.00
2018-12-15T06:15:30.764Z,0.00
2018-12-15T06:16:30.802Z,0.00
2018-12-15T06:17:30.790Z,0.00
2018-12-15T06:18:31.832Z,0.00
2018-12-15T06:19:30.804Z,0.00
2018-12-15T06:20:30.821Z,0.00
2018-12-15T06:21:30.829Z,0.00
2018-12-15T06:22:30.839Z,0.00
2018-12-15T06:23:30.855Z,0.00
2018-12-15T06:24:30.858Z,0.00
2018-12-15T06:25:30.874Z,0.00
2018-12-15T06:26:30.886Z,0.00
2018-12-15T06:27:30.891Z,0.00
2018-12-15T06:28:30.915Z,0.00
2018-12-15T06:29:30.917Z,0.00
2018-12-15T06:30:30.924Z,0.00
2018-12-15T06:31:30.939Z,0.00
2018-12-15T06:32:30.950Z,0.00
2018-12-15T06:33:31.122Z,0.00
2018-12-15T06:34:30.974Z,0.00
2018-12-15T06:35:30.981Z,0.00
2018-12-15T06:36:30.995Z,0.00
2018-12-15T06:37:31.062Z,0.00
2018-12-15T06:38:31.039Z,0.00
2018-12-15T06:39:31.024Z,0.00
2018-12-15T06:40:31.041Z,0.00
2018-12-15T06:41:31.048Z,0.00
2018-12-15T06:42:31.057Z,0.00
2018-12-15T06:43:31.076Z,0.00
2018-12-15T06:44:31.081Z,0.00
2018-12-15T06:45:31.099Z,0.00
2018-12-15T06:46:31.108Z,0.00
2018-12-15T06:47:31.115Z,0.00
2018-12-15T06:48:31.125Z,0.00
2018-12-15T06:49:31.137Z,0.00
2018-12-15T06:50:31.258Z,0.00
2018-12-15T06:51:31.158Z,0.00
2018-12-15T06:52:31.173Z,0.00
2018-12-15T06:53:31.181Z,0.00
2018-12-15T06:54:31.214Z,0.00
2018-12-15T06:55:31.203Z,0.00
2018-12-15T06:56:32.253Z,0.00
2018-12-15T06:57:31.224Z,0.00
2018-12-15T06:58:31.242Z,0.00
2018-12-15T06:59:31.253Z,0.00
2018-12-15T07:00:31.258Z,0.00
2018-12-15T07:01:31.271Z,0.00
2018-12-15T07:02:31.287Z,0.00
2018-12-15T07:03:31.294Z,0.00
2018-12-15T07:04:31.318Z,0.00
2018-12-15T07:05:31.315Z,0.00
2018-12-15T07:06:31.352Z,0.00
2018-12-15T07:07:31.349Z,0.00
2018-12-15T07:08:31.345Z,0.00
2018-12-15T07:09:31.364Z,0.00
2018-12-15T07:10:31.377Z,0.00
2018-12-15T07:11:31.452Z,4.00
2018-12-15T07:12:31.398Z,4.00
2018-12-15T07:13:31.410Z,4.00
2018-12-15T07:14:31.421Z,4.00
2018-12-15T07:15:31.429Z,4.00
2018-12-15T07:16:31.444Z,4.00
2018-12-15T07:17:31.479Z,0.00
2018-12-15T07:18:31.492Z,0.00
2018-12-15T07:19:31.505Z,0.00
2018-12-15T07:20:31.520Z,4.00
2018-12-15T07:21:31.511Z,4.00
2018-12-15T07:22:31.510Z,4.00
2018-12-15T07:23:31.519Z,4.00
2018-12-15T07:24:31.592Z,4.00
2018-12-15T07:25:31.554Z,0.00
2018-12-15T07:26:31.564Z,4.00
2018-12-15T07:27:31.573Z,4.00
2018-12-15T07:28:31.577Z,4.00
2018-12-15T07:29:31.599Z,4.00
2018-12-15T07:30:31.625Z,8.00
2018-12-15T07:31:31.620Z,4.00
2018-12-15T07:32:31.660Z,4.00
2018-12-15T07:33:31.639Z,4.00
2018-12-15T07:34:31.652Z,8.00
2018-12-15T07:35:31.654Z,8.00
2018-12-15T07:36:31.665Z,8.00
2018-12-15T07:37:31.677Z,4.00
2018-12-15T07:38:31.689Z,8.00
2018-12-15T07:39:31.826Z,8.00
2018-12-15T07:40:31.713Z,8.00
2018-12-15T07:41:31.744Z,8.00
2018-12-15T07:42:31.737Z,8.00
2018-12-15T07:43:31.744Z,12.00
2018-12-15T07:44:31.757Z,8.00
2018-12-15T07:45:31.804Z,8.00
2018-12-15T07:46:31.776Z,12.00
2018-12-15T07:47:31.808Z,8.00
2018-12-15T07:48:31.813Z,12.00
2018-12-15T07:49:31.822Z,12.00
2018-12-15T07:50:31.829Z,12.00
2018-12-15T07:51:31.840Z,12.00
2018-12-15T07:52:31.845Z,16.00
2018-12-15T07:53:31.859Z,12.00
2018-12-15T07:54:31.874Z,12.00
2018-12-15T07:55:31.877Z,12.00
2018-12-15T07:56:31.906Z,12.00
2018-12-15T07:57:31.906Z,12.00
2018-12-15T07:58:31.915Z,16.00
2018-12-15T07:59:31.930Z,12.00
2018-12-15T08:00:31.942Z,12.00
2018-12-15T08:01:31.944Z,16.00
2018-12-15T08:02:31.953Z,16.00
2018-12-15T08:03:31.969Z,12.00
2018-12-15T08:04:31.993Z,16.00
2018-12-15T08:05:31.989Z,16.00
2018-12-15T08:06:31.999Z,20.00
2018-12-15T08:07:32.012Z,16.00
2018-12-15T08:08:32.020Z,16.00
2018-12-15T08:09:32.035Z,16.00
2018-12-15T08:10:32.049Z,20.00
2018-12-15T08:11:32.057Z,20.00
2018-12-15T08:12:32.067Z,20.00
2018-12-15T08:13:32.189Z,20.00
2018-12-15T08:14:32.102Z,20.00
2018-12-15T08:15:32.105Z,24.00
2018-12-15T08:16:32.123Z,20.00
2018-12-15T08:17:32.130Z,24.00
2018-12-15T08:18:32.138Z,24.00
2018-12-15T08:19:32.152Z,24.00
2018-12-15T08:20:32.159Z,24.00
2018-12-15T08:21:32.165Z,24.00
2018-12-15T08:22:32.194Z,24.00
2018-12-15T08:23:32.274Z,24.00
2018-12-15T08:24:32.315Z,24.00
2018-12-15T08:25:32.211Z,28.00
2018-12-15T08:26:32.271Z,24.00
2018-12-15T08:28:32.243Z,28.00
2018-12-15T08:29:32.258Z,28.00
2018-12-15T08:30:32.651Z,28.00
2018-12-15T08:31:32.285Z,28.00
2018-12-15T08:32:32.310Z,28.00
2018-12-15T08:33:32.295Z,28.00
2018-12-15T08:34:32.311Z,28.00
2018-12-15T08:35:32.323Z,32.00
2018-12-15T08:36:32.351Z,32.00
2018-12-15T08:37:32.340Z,32.00
2018-12-15T08:38:32.363Z,36.00
2018-12-15T08:39:32.370Z,32.00
2018-12-15T08:40:32.375Z,36.00
2018-12-15T08:41:32.382Z,32.00
2018-12-15T08:42:32.399Z,36.00
2018-12-15T08:43:32.411Z,36.00
2018-12-15T08:44:32.471Z,36.00
2018-12-15T08:45:32.426Z,36.00
2018-12-15T08:46:32.451Z,36.00
2018-12-15T08:47:32.513Z,36.00
2018-12-15T08:48:32.481Z,36.00
2018-12-15T08:49:32.472Z,36.00
2018-12-15T08:50:32.503Z,36.00
2018-12-15T08:51:32.494Z,36.00
2018-12-15T08:52:32.508Z,36.00
2018-12-15T08:53:32.522Z,36.00
2018-12-15T08:54:32.533Z,36.00
2018-12-15T08:55:32.544Z,36.00
2018-12-15T08:56:32.551Z,36.00
2018-12-15T08:57:32.567Z,36.00
2018-12-15T08:58:32.590Z,36.00
2018-12-15T08:59:32.595Z,40.00
2018-12-15T09:00:32.600Z,36.00
2018-12-15T09:01:32.679Z,36.00
2018-12-15T09:02:32.619Z,40.00
2018-12-15T09:03:32.656Z,40.00
2018-12-15T09:04:32.747Z,40.00
2018-12-15T09:05:32.664Z,40.00
2018-12-15T09:06:32.657Z,40.00
2018-12-15T09:07:32.675Z,40.00
2018-12-15T09:08:32.693Z,40.00
2018-12-15T09:09:32.704Z,40.00
2018-12-15T09:10:32.711Z,40.00
2018-12-15T09:11:32.726Z,44.00
2018-12-15T09:12:32.728Z,44.00
2018-12-15T09:13:32.747Z,44.00
2018-12-15T09:14:32.749Z,44.00
2018-12-15T09:15:32.764Z,44.00
2018-12-15T09:16:32.781Z,44.00
2018-12-15T09:18:32.794Z,44.00
2018-12-15T09:19:32.803Z,44.00
2018-12-15T09:20:32.815Z,44.00
2018-12-15T09:21:32.829Z,44.00
2018-12-15T09:22:32.840Z,48.00
2018-12-15T09:23:32.848Z,48.00
2018-12-15T09:24:32.865Z,48.00
2018-12-15T09:25:32.915Z,48.00
2018-12-15T09:26:32.890Z,48.00
2018-12-15T09:27:32.896Z,48.00
2018-12-15T09:28:32.912Z,48.00
2018-12-15T09:29:32.921Z,44.00
2018-12-15T09:30:32.928Z,48.00
2018-12-15T09:31:32.951Z,48.00
2018-12-15T09:32:32.956Z,48.00
2018-12-15T09:33:32.969Z,48.00
2018-12-15T09:34:32.975Z,48.00
2018-12-15T09:35:32.981Z,48.00
2018-12-15T09:36:33.083Z,48.00
2018-12-15T09:37:33.015Z,48.00
2018-12-15T09:39:33.097Z,48.00
2018-12-15T09:40:33.041Z,48.00
2018-12-15T09:41:33.052Z,48.00
2018-12-15T09:42:33.086Z,48.00
2018-12-15T09:43:33.087Z,52.00
2018-12-15T09:44:33.094Z,48.00
2018-12-15T09:45:33.100Z,48.00
2018-12-15T09:46:33.118Z,48.00
2018-12-15T09:47:33.126Z,48.00
2018-12-15T09:48:33.133Z,48.00
2018-12-15T09:49:33.161Z,48.00
2018-12-15T09:50:33.162Z,48.00
2018-12-15T09:51:33.170Z,48.00
2018-12-15T09:52:33.182Z,48.00
2018-12-15T09:53:33.214Z,52.00
2018-12-15T09:54:33.198Z,48.00
2018-12-15T09:55:33.297Z,52.00
2018-12-15T09:56:33.238Z,48.00
2018-12-15T09:57:33.234Z,52.00
2018-12-15T09:58:33.254Z,52.00
2018-12-15T09:59:33.293Z,52.00
2018-12-15T10:00:33.275Z,52.00
2018-12-15T10:01:33.278Z,52.00
2018-12-15T10:02:33.299Z,52.00
2018-12-15T10:03:33.303Z,52.00
2018-12-15T10:04:33.309Z,52.00
2018-12-15T10:05:33.332Z,52.00
2018-12-15T10:06:33.334Z,52.00
2018-12-15T10:07:33.347Z,52.00
2018-12-15T10:08:33.364Z,52.00
2018-12-15T10:09:33.369Z,52.00
2018-12-15T10:10:33.453Z,56.00
2018-12-15T10:11:33.401Z,52.00
2018-12-15T10:12:33.423Z,52.00
2018-12-15T10:13:33.418Z,56.00
2018-12-15T10:14:33.433Z,56.00
2018-12-15T10:15:33.438Z,52.00
2018-12-15T10:16:33.454Z,52.00
2018-12-15T10:17:33.476Z,52.00
2018-12-15T10:18:33.488Z,52.00
2018-12-15T10:19:33.480Z,52.00
2018-12-15T10:20:33.494Z,52.00
2018-12-15T10:21:33.517Z,52.00
2018-12-15T10:22:33.517Z,52.00
2018-12-15T10:23:33.526Z,56.00
2018-12-15T10:24:33.536Z,52.00
2018-12-15T10:25:33.553Z,56.00
2018-12-15T10:26:33.568Z,56.00
2018-12-15T10:27:33.690Z,52.00
2018-12-15T10:28:33.583Z,56.00
2018-12-15T10:29:33.597Z,56.00
2018-12-15T10:30:33.611Z,56.00
2018-12-15T10:31:33.616Z,56.00
2018-12-15T10:32:33.632Z,56.00
2018-12-15T10:33:33.645Z,56.00
2018-12-15T10:34:33.654Z,60.00
2018-12-15T10:35:33.666Z,56.00
2018-12-15T10:36:33.675Z,56.00
2018-12-15T10:37:33.694Z,56.00
2018-12-15T10:38:33.700Z,56.00
2018-12-15T10:39:33.710Z,56.00
2018-12-15T10:40:33.736Z,56.00
2018-12-15T10:41:33.737Z,56.00
2018-12-15T10:42:33.741Z,60.00
2018-12-15T10:43:33.753Z,64.00
2018-12-15T10:44:33.893Z,60.00
2018-12-15T10:45:33.773Z,64.00
2018-12-15T10:46:33.795Z,64.00
2018-12-15T10:47:33.815Z,64.00
2018-12-15T10:48:33.818Z,64.00
2018-12-15T10:49:33.826Z,64.00
2018-12-15T10:50:33.849Z,64.00
2018-12-15T10:51:33.850Z,64.00
2018-12-15T10:52:33.853Z,64.00
2018-12-15T10:53:33.866Z,60.00
2018-12-15T10:54:33.879Z,64.00
2018-12-15T10:55:33.888Z,64.00
2018-12-15T10:56:33.911Z,68.00
2018-12-15T10:57:33.909Z,64.00
2018-12-15T10:58:33.920Z,64.00
2018-12-15T10:59:33.965Z,68.00
2018-12-15T11:00:33.955Z,64.00
2018-12-15T11:01:33.996Z,64.00
2018-12-15T11:02:33.977Z,64.00
2018-12-15T11:03:33.975Z,64.00
2018-12-15T11:04:33.994Z,64.00
2018-12-15T11:05:34.000Z,68.00
2018-12-15T11:06:34.022Z,68.00
2018-12-15T11:07:34.345Z,64.00
2018-12-15T11:08:34.042Z,68.00
2018-12-15T11:09:34.062Z,68.00
2018-12-15T11:10:34.067Z,64.00
2018-12-15T11:11:34.075Z,68.00
2018-12-15T11:12:34.082Z,68.00
2018-12-15T11:13:34.111Z,68.00
2018-12-15T11:14:34.107Z,72.00
2018-12-15T11:15:34.122Z,68.00
2018-12-15T11:16:34.141Z,68.00
2018-12-15T11:17:34.137Z,72.00
2018-12-15T11:18:34.270Z,72.00
2018-12-15T11:19:37.183Z,72.00
2018-12-15T11:20:34.171Z,76.00
2018-12-15T11:21:34.177Z,76.00
2018-12-15T11:22:34.205Z,80.00
2018-12-15T11:23:34.227Z,80.00
2018-12-15T11:24:34.222Z,80.00
2018-12-15T11:25:34.254Z,80.00
2018-12-15T11:26:34.304Z,80.00
2018-12-15T11:27:34.250Z,84.00
2018-12-15T11:28:34.258Z,84.00
2018-12-15T11:29:34.290Z,84.00
2018-12-15T11:30:34.289Z,84.00
2018-12-15T11:31:34.295Z,88.00
2018-12-15T11:32:34.324Z,92.00
2018-12-15T11:33:34.319Z,92.00
2018-12-15T11:34:34.332Z,92.00
2018-12-15T11:35:34.405Z,92.00
2018-12-15T11:36:34.350Z,96.00
2018-12-15T11:37:34.368Z,100.00
2018-12-15T11:38:34.367Z,100.00
2018-12-15T11:39:34.393Z,104.00
2018-12-15T11:40:34.393Z,108.00
2018-12-15T11:41:34.419Z,108.00
2018-12-15T11:42:34.425Z,108.00
2018-12-15T11:43:34.437Z,112.00
2018-12-15T11:44:34.610Z,112.00
2018-12-15T11:45:34.452Z,108.00
2018-12-15T11:46:34.464Z,112.00
2018-12-15T11:47:34.478Z,112.00
2018-12-15T11:48:34.485Z,112.00
2018-12-15T11:49:34.498Z,112.00
2018-12-15T11:50:34.516Z,112.00
2018-12-15T11:51:34.528Z,108.00
2018-12-15T11:52:34.594Z,108.00
2018-12-15T11:53:34.541Z,112.00
2018-12-15T11:54:34.549Z,108.00
2018-12-15T11:55:34.562Z,108.00
2018-12-15T11:56:34.576Z,108.00
2018-12-15T11:57:34.605Z,104.00
2018-12-15T11:58:34.612Z,104.00
2018-12-15T11:59:34.630Z,104.00
2018-12-15T12:00:34.617Z,104.00
2018-12-15T12:01:34.656Z,108.00
2018-12-15T12:02:34.643Z,104.00
2018-12-15T12:03:34.657Z,108.00
2018-12-15T12:04:34.688Z,104.00
2018-12-15T12:05:34.741Z,108.00
2018-12-15T12:06:34.689Z,104.00
2018-12-15T12:07:34.732Z,104.00
2018-12-15T12:08:34.730Z,104.00
2018-12-15T12:09:34.734Z,100.00
2018-12-15T12:10:34.748Z,100.00
2018-12-15T12:11:34.751Z,100.00
2018-12-15T12:12:34.770Z,100.00
2018-12-15T12:13:34.777Z,100.00
2018-12-15T12:14:34.776Z,96.00
2018-12-15T12:15:34.794Z,96.00
2018-12-15T12:16:34.808Z,92.00
2018-12-15T12:17:34.830Z,92.00
2018-12-15T12:18:34.820Z,92.00
2018-12-15T12:19:34.839Z,92.00
2018-12-15T12:20:35.341Z,92.00
2018-12-15T12:21:34.856Z,96.00
2018-12-15T12:22:34.868Z,96.00
2018-12-15T12:23:34.881Z,100.00
2018-12-15T12:24:34.902Z,100.00
2018-12-15T12:25:34.898Z,100.00
2018-12-15T12:26:35.015Z,104.00
2018-12-15T12:27:34.921Z,108.00
2018-12-15T12:28:34.933Z,116.00
2018-12-15T12:29:34.947Z,116.00
2018-12-15T12:30:34.968Z,120.00
2018-12-15T12:31:34.965Z,120.00
2018-12-15T12:32:34.997Z,120.00
2018-12-15T12:33:34.999Z,120.00
2018-12-15T12:34:35.016Z,116.00
2018-12-15T12:35:35.009Z,116.00
2018-12-15T12:36:35.023Z,116.00
2018-12-15T12:37:35.043Z,112.00
2018-12-15T12:38:35.049Z,108.00
2018-12-15T12:39:35.100Z,108.00
2018-12-15T12:40:35.078Z,112.00
2018-12-15T12:41:35.129Z,108.00
2018-12-15T12:42:35.111Z,108.00
2018-12-15T12:43:35.158Z,108.00
2018-12-15T12:44:35.110Z,108.00
2018-12-15T12:45:35.174Z,108.00
2018-12-15T12:46:35.214Z,112.00
2018-12-15T12:47:35.923Z,108.00
2018-12-15T12:48:35.164Z,108.00
2018-12-15T12:49:35.172Z,112.00
2018-12-15T12:50:35.183Z,112.00
2018-12-15T12:51:35.190Z,112.00
2018-12-15T12:52:35.230Z,108.00
2018-12-15T12:53:35.218Z,108.00
2018-12-15T12:54:35.232Z,108.00
2018-12-15T12:55:35.249Z,108.00
2018-12-15T12:56:35.253Z,108.00
2018-12-15T12:57:35.269Z,104.00
2018-12-15T12:58:35.301Z,100.00
2018-12-15T12:59:35.281Z,100.00
2018-12-15T13:00:35.295Z,100.00
2018-12-15T13:01:35.307Z,100.00
2018-12-15T13:02:35.330Z,96.00
2018-12-15T13:03:35.333Z,96.00
2018-12-15T13:04:35.342Z,96.00
2018-12-15T13:05:35.359Z,100.00
2018-12-15T13:06:35.365Z,96.00
2018-12-15T13:07:35.394Z,96.00
2018-12-15T13:08:35.398Z,96.00
2018-12-15T13:09:35.413Z,96.00
2018-12-15T13:10:35.406Z,96.00
2018-12-15T13:11:35.413Z,96.00
2018-12-15T13:12:35.425Z,96.00
2018-12-15T13:13:35.453Z,96.00
2018-12-15T13:14:35.450Z,84.00